Joy — V2EI9 — position and weather

sailwx.info

Track history (hours):
 
Tides and Currents Weather Stations Pressure Air Temp Water Temp Dewpoint Dewpoint Depression Visibility Wind Speed Wind Dir Waves Ship Positions

Joy

Last reported at 2015-Mar-03 00:33 UTC. Time now 2015-Mar-03 00:40 UTC.
Position N 38°41' W 009°15'.

Length 105 m; draft 3.9 m.

Type: Cargo ship. MMSI: 305444000.

Date/timePositionNaut miles runAvg speedWind from/ knotsBaromVisibWave heightAir tempDewpointWater temp
2015-Mar-03 00:33N 38°41' W 009°15'9 8.5
2015-Mar-02 23:33N 38°40' W 009°04'0 0.0
2015-Mar-02 22:17N 38°40' W 009°04'0 0.0
2015-Mar-02 21:20N 38°40' W 009°04'0 0.0
2015-Mar-02 20:32N 38°40' W 009°04'0 0.0
2015-Mar-02 19:32N 38°40' W 009°04'0 0.0
2015-Mar-02 17:32N 38°40' W 009°04'0 0.0
2015-Mar-02 16:23N 38°40' W 009°04'0 0.0
2015-Mar-02 14:32N 38°40' W 009°04'0 0.0
2015-Mar-02 12:32N 38°40' W 009°04'0 0.0
2015-Mar-02 11:26N 38°40' W 009°04'0 0.0
2015-Mar-02 10:14N 38°40' W 009°04'0 0.0
2015-Mar-02 09:32N 38°40' W 009°04'0 0.0
2015-Mar-02 08:08N 38°40' W 009°04'0 0.0
2015-Mar-02 07:32N 38°40' W 009°04'0 0.0
2015-Mar-02 06:29N 38°40' W 009°04'0 0.0
2015-Mar-02 05:17N 38°40' W 009°04'0 0.0
2015-Mar-02 04:26N 38°40' W 009°04'0 0.0
2015-Mar-02 02:20N 38°40' W 009°04'0 0.0
2015-Mar-02 01:11N 38°40' W 009°04'0 0.0
2015-Mar-02 00:14N 38°40' W 009°04'0 0.0
2015-Mar-01 23:17N 38°40' W 009°04'0 0.0
2015-Mar-01 22:26N 38°40' W 009°04'0 0.0
2015-Mar-01 20:26N 38°40' W 009°04'0 0.0
2015-Mar-01 17:31N 38°40' W 009°04'0 0.0
2015-Mar-01 13:25N 38°40' W 009°04'0 0.0
2015-Mar-01 09:19N 38°40' W 009°04'0 0.0
2015-Mar-01 06:22N 38°40' W 009°04'0 0.0
2015-Mar-01 05:25N 38°40' W 009°04'0 0.0
2015-Mar-01 03:13N 38°40' W 009°04'0 0.0
2015-Mar-01 02:25N 38°40' W 009°04'0 0.0
2015-Mar-01 01:25N 38°40' W 009°04'0 0.0
2015-Mar-01 00:31N 38°40' W 009°04'0 0.0
2015-Feb-28 21:33N 38°40' W 009°04'7 7.0
2015-Feb-28 20:33N 38°41' W 009°13'9 9.2
2015-Feb-28 19:33N 38°37' W 009°23'1010.2
2015-Feb-28 18:32N 38°35' W 009°36'1010.6
2015-Feb-28 17:33N 38°34' W 009°50'1110.8
2015-Feb-28 16:33N 38°33' W 010°03'  
2015-Feb-24 15:33N 50°27' W 000°29'19 5.9
2015-Feb-24 12:23N 50°30' E 000°00'5 4.7
2015-Feb-24 11:22N 50°32' E 000°08'6 6.2
2015-Feb-24 10:27N 50°33' E 000°16'7 7.5
2015-Feb-24 09:33N 50°35' E 000°26'8 8.2
2015-Feb-24 08:33N 50°38' E 000°39'9 8.6
2015-Feb-24 07:32N 50°43' E 000°50'7 7.4
2015-Feb-24 06:33N 50°47' E 000°59'7 5.9
2015-Feb-24 05:27N 50°51' E 001°08'9 4.6
2015-Feb-24 03:28N 50°56' E 001°19'3 3.4
2015-Feb-24 02:33N 50°58' E 001°23'4 3.7
2015-Feb-24 01:33N 51°01' E 001°27'6 6.4
2015-Feb-24 00:34N 51°05' E 001°34'9 8.6
2015-Feb-23 23:33N 51°12' E 001°44'1010.4
2015-Feb-23 22:33N 51°20' E 001°53'10 9.7
2015-Feb-23 21:33N 51°28' E 002°01'8 8.2
2015-Feb-23 20:33N 51°35' E 002°09'7 7.1
2015-Feb-23 19:33N 51°41' E 002°15'  
2015-Feb-21 07:32N 57°47' E 010°38'8 8.2
2015-Feb-21 06:33N 57°41' E 010°46'1110.7
2015-Feb-21 05:33N 57°30' E 010°45'1210.8
2015-Feb-21 04:24N 57°18' E 010°44'  
Track history (hours):
 
Tides and Currents Weather Stations Pressure Air Temp Water Temp Dewpoint Dewpoint Depression Visibility Wind Speed Wind Dir Waves Ship Positions

Joy

Last reported at 2015-Mar-03 00:33 UTC. Time now 2015-Mar-03 00:40 UTC.
Position N 38°41' W 009°15'.

Length 105 m; draft 3.9 m.

Type: Cargo ship. MMSI: 305444000.

Date/timePositionNaut miles runAvg speedWind from/ knotsBaromVisibWave heightAir tempDewpointWater temp
2015-Mar-03 00:33N 38°41' W 009°15'9 8.5
2015-Mar-02 23:33N 38°40' W 009°04'0 0.0
2015-Mar-02 22:17N 38°40' W 009°04'0 0.0
2015-Mar-02 21:20N 38°40' W 009°04'0 0.0
2015-Mar-02 20:32N 38°40' W 009°04'0 0.0
2015-Mar-02 19:32N 38°40' W 009°04'0 0.0
2015-Mar-02 17:32N 38°40' W 009°04'0 0.0
2015-Mar-02 16:23N 38°40' W 009°04'0 0.0
2015-Mar-02 14:32N 38°40' W 009°04'0 0.0
2015-Mar-02 12:32N 38°40' W 009°04'0 0.0
2015-Mar-02 11:26N 38°40' W 009°04'0 0.0
2015-Mar-02 10:14N 38°40' W 009°04'0 0.0
2015-Mar-02 09:32N 38°40' W 009°04'0 0.0
2015-Mar-02 08:08N 38°40' W 009°04'0 0.0
2015-Mar-02 07:32N 38°40' W 009°04'0 0.0
2015-Mar-02 06:29N 38°40' W 009°04'0 0.0
2015-Mar-02 05:17N 38°40' W 009°04'0 0.0
2015-Mar-02 04:26N 38°40' W 009°04'0 0.0
2015-Mar-02 02:20N 38°40' W 009°04'0 0.0
2015-Mar-02 01:11N 38°40' W 009°04'0 0.0
2015-Mar-02 00:14N 38°40' W 009°04'0 0.0
2015-Mar-01 23:17N 38°40' W 009°04'0 0.0
2015-Mar-01 22:26N 38°40' W 009°04'0 0.0
2015-Mar-01 20:26N 38°40' W 009°04'0 0.0
2015-Mar-01 17:31N 38°40' W 009°04'0 0.0
2015-Mar-01 13:25N 38°40' W 009°04'0 0.0
2015-Mar-01 09:19N 38°40' W 009°04'0 0.0
2015-Mar-01 06:22N 38°40' W 009°04'0 0.0
2015-Mar-01 05:25N 38°40' W 009°04'0 0.0
2015-Mar-01 03:13N 38°40' W 009°04'0 0.0
2015-Mar-01 02:25N 38°40' W 009°04'0 0.0
2015-Mar-01 01:25N 38°40' W 009°04'0 0.0
2015-Mar-01 00:31N 38°40' W 009°04'0 0.0
2015-Feb-28 21:33N 38°40' W 009°04'7 7.0
2015-Feb-28 20:33N 38°41' W 009°13'9 9.2
2015-Feb-28 19:33N 38°37' W 009°23'1010.2
2015-Feb-28 18:32N 38°35' W 009°36'1010.6
2015-Feb-28 17:33N 38°34' W 009°50'1110.8
2015-Feb-28 16:33N 38°33' W 010°03'  
2015-Feb-24 15:33N 50°27' W 000°29'19 5.9
2015-Feb-24 12:23N 50°30' E 000°00'5 4.7
2015-Feb-24 11:22N 50°32' E 000°08'6 6.2
2015-Feb-24 10:27N 50°33' E 000°16'7 7.5
2015-Feb-24 09:33N 50°35' E 000°26'8 8.2
2015-Feb-24 08:33N 50°38' E 000°39'9 8.6
2015-Feb-24 07:32N 50°43' E 000°50'7 7.4
2015-Feb-24 06:33N 50°47' E 000°59'7 5.9
2015-Feb-24 05:27N 50°51' E 001°08'9 4.6
2015-Feb-24 03:28N 50°56' E 001°19'3 3.4
2015-Feb-24 02:33N 50°58' E 001°23'4 3.7
2015-Feb-24 01:33N 51°01' E 001°27'6 6.4
2015-Feb-24 00:34N 51°05' E 001°34'9 8.6
2015-Feb-23 23:33N 51°12' E 001°44'1010.4
2015-Feb-23 22:33N 51°20' E 001°53'10 9.7
2015-Feb-23 21:33N 51°28' E 002°01'8 8.2
2015-Feb-23 20:33N 51°35' E 002°09'7 7.1
2015-Feb-23 19:33N 51°41' E 002°15'  
2015-Feb-21 07:32N 57°47' E 010°38'8 8.2
2015-Feb-21 06:33N 57°41' E 010°46'1110.7
2015-Feb-21 05:33N 57°30' E 010°45'1210.8
2015-Feb-21 04:24N 57°18' E 010°44'  

Dump ship's entire track history